createdAt,value
2019-02-22T00:00:52.230Z,100378.06
2019-02-22T00:03:22.015Z,100378.15
2019-02-22T00:05:51.462Z,100379.47
2019-02-22T00:08:21.448Z,100381.86
2019-02-22T00:10:50.918Z,100379.61
2019-02-22T00:13:21.227Z,100382.95
2019-02-22T00:15:50.949Z,100387.48
2019-02-22T00:18:22.808Z,100374.06
2019-02-22T00:20:52.811Z,100380.45
2019-02-22T00:23:24.439Z,100384.02
2019-02-22T00:25:54.932Z,100387.66
2019-02-22T00:28:26.438Z,100394.93
2019-02-22T00:30:58.203Z,100399.76
2019-02-22T00:33:27.425Z,100413.05
2019-02-22T00:35:57.084Z,100409.09
2019-02-22T00:38:27.122Z,100412.66
2019-02-22T00:40:59.935Z,100412.45
2019-02-22T00:43:31.589Z,100412.72
2019-02-22T00:46:02.269Z,100417.88
2019-02-22T00:48:34.116Z,100416.80
2019-02-22T00:51:04.902Z,100419.34
2019-02-22T00:53:35.471Z,100414.67
2019-02-22T00:56:05.719Z,100412.42
2019-02-22T00:58:35.703Z,100416.98
2019-02-22T01:01:09.394Z,100418.78
2019-02-22T01:03:39.512Z,100420.23
2019-02-22T01:06:08.995Z,100429.95
2019-02-22T01:08:38.200Z,100428.50
2019-02-22T01:11:13.241Z,100425.55
2019-02-22T01:13:43.276Z,100425.92
2019-02-22T01:16:16.508Z,100429.82
2019-02-22T01:18:48.332Z,100432.30
2019-02-22T01:21:18.497Z,100431.73
2019-02-22T01:23:50.973Z,100429.66
2019-02-22T01:26:22.459Z,100434.88
2019-02-22T01:28:54.734Z,100438.11
2019-02-22T01:31:24.026Z,100434.55
2019-02-22T01:34:15.372Z,100436.63
2019-02-22T01:36:49.277Z,100440.56
2019-02-22T01:39:18.463Z,100444.27
2019-02-22T01:41:49.465Z,100441.29
2019-02-22T01:44:23.781Z,100447.11
2019-02-22T01:46:54.506Z,100447.37
2019-02-22T01:49:25.977Z,100446.64
2019-02-22T01:51:56.012Z,100458.08
2019-02-22T01:54:25.747Z,100455.44
2019-02-22T01:56:56.500Z,100451.17
2019-02-22T01:59:28.557Z,100462.38
2019-02-22T02:02:01.328Z,100454.05
2019-02-22T02:04:30.496Z,100458.02
2019-02-22T02:07:00.376Z,100458.88
2019-02-22T02:09:31.287Z,100458.64
2019-02-22T02:12:02.110Z,100464.16
2019-02-22T02:14:33.118Z,100466.81
2019-02-22T02:17:05.730Z,100476.53
2019-02-22T02:19:35.146Z,100473.95
2019-02-22T02:22:04.683Z,100474.22
2019-02-22T02:24:37.974Z,100472.83
2019-02-22T02:27:11.651Z,100475.61
2019-02-22T02:29:44.665Z,100476.73
2019-02-22T02:32:15.325Z,100480.37
2019-02-22T02:34:45.288Z,100480.23
2019-02-22T02:37:17.125Z,100480.37
2019-02-22T02:39:47.436Z,100479.97
2019-02-22T02:42:20.840Z,100474.97
2019-02-22T02:44:50.398Z,100482.38
2019-02-22T02:47:21.161Z,100482.16
2019-02-22T02:49:51.104Z,100484.13
2019-02-22T02:52:21.816Z,100480.84
2019-02-22T02:54:52.138Z,100487.27
2019-02-22T02:57:22.034Z,100484.75
2019-02-22T02:59:51.209Z,100480.09
2019-02-22T03:02:24.401Z,100479.80
2019-02-22T03:04:57.091Z,100485.72
2019-02-22T03:07:54.683Z,100481.48
2019-02-22T03:10:26.035Z,100487.86
2019-02-22T03:12:55.267Z,100488.89
2019-02-22T03:15:25.567Z,100492.92
2019-02-22T03:17:55.287Z,100498.89
2019-02-22T03:20:26.774Z,100504.25
2019-02-22T03:22:57.923Z,100499.30
2019-02-22T03:25:28.929Z,100508.02
2019-02-22T03:28:00.294Z,100510.95
2019-02-22T03:30:31.321Z,100505.05
2019-02-22T03:33:04.732Z,100511.81
2019-02-22T03:35:34.699Z,100514.83
2019-02-22T03:38:05.950Z,100521.89
2019-02-22T03:40:37.271Z,100522.97
2019-02-22T03:43:06.797Z,100524.41
2019-02-22T03:45:36.466Z,100519.00
2019-02-22T03:48:06.933Z,100526.36
2019-02-22T03:50:40.594Z,100528.45
2019-02-22T03:53:33.006Z,100532.81
2019-02-22T03:56:03.278Z,100532.10
2019-02-22T03:58:32.704Z,100537.70
2019-02-22T04:01:03.012Z,100543.14
2019-02-22T04:03:35.097Z,100547.41
2019-02-22T04:06:05.113Z,100536.53
2019-02-22T04:08:36.394Z,100538.71
2019-02-22T04:11:06.120Z,100538.65
2019-02-22T04:13:35.883Z,100550.73
2019-02-22T04:16:06.221Z,100544.58
2019-02-22T04:18:35.679Z,100554.23
2019-02-22T04:21:07.254Z,100547.56
2019-02-22T04:23:37.211Z,100551.99
2019-02-22T04:26:06.716Z,100555.80
2019-02-22T04:28:36.449Z,100554.17
2019-02-22T04:31:06.711Z,100550.39
2019-02-22T04:33:37.093Z,100552.91
2019-02-22T04:36:06.870Z,100567.11
2019-02-22T04:38:36.543Z,100563.88
2019-02-22T04:41:07.550Z,100573.00
2019-02-22T04:43:38.510Z,100573.80
2019-02-22T04:46:08.823Z,100579.49
2019-02-22T04:48:37.999Z,100589.18
2019-02-22T04:51:07.430Z,100591.82
2019-02-22T04:53:37.201Z,100599.78
2019-02-22T04:56:10.775Z,100598.44
2019-02-22T04:58:41.038Z,100600.08
2019-02-22T05:01:13.369Z,100603.17
2019-02-22T05:03:44.738Z,100608.86
2019-02-22T05:06:15.200Z,100610.99
2019-02-22T05:08:46.755Z,100616.87
2019-02-22T05:11:19.265Z,100619.14
2019-02-22T05:13:48.730Z,100619.89
2019-02-22T05:16:18.967Z,100623.67
2019-02-22T05:18:48.741Z,100629.36
2019-02-22T05:21:17.916Z,100630.11
2019-02-22T05:23:48.989Z,100635.80
2019-02-22T05:26:18.173Z,100636.26
2019-02-22T05:28:47.940Z,100644.24
2019-02-22T05:31:17.649Z,100640.22
2019-02-22T05:33:46.869Z,100638.50
2019-02-22T05:36:16.034Z,100630.52
2019-02-22T05:38:45.303Z,100627.67
2019-02-22T05:41:15.249Z,100629.34
2019-02-22T05:43:46.580Z,100629.00
2019-02-22T05:46:18.044Z,100637.98
2019-02-22T05:48:48.649Z,100645.11
2019-02-22T05:51:19.078Z,100645.67
2019-02-22T05:53:50.592Z,100653.49
2019-02-22T05:56:20.387Z,100651.84
2019-02-22T05:58:50.120Z,100656.02
2019-02-22T06:01:19.904Z,100652.46
2019-02-22T06:03:49.125Z,100648.30
2019-02-22T06:06:18.274Z,100649.69
2019-02-22T06:08:49.453Z,100654.34
2019-02-22T06:11:18.781Z,100657.75
2019-02-22T06:13:48.550Z,100658.98
2019-02-22T06:16:17.779Z,100657.27
2019-02-22T06:18:48.120Z,100665.08
2019-02-22T06:21:18.146Z,100665.77
2019-02-22T06:23:49.983Z,100666.69
2019-02-22T06:26:19.197Z,100668.70
2019-02-22T06:28:54.341Z,100670.42
2019-02-22T06:31:25.342Z,100674.68
2019-02-22T06:33:55.120Z,100679.39
2019-02-22T06:36:24.339Z,100682.03
2019-02-22T06:38:54.143Z,100690.53
2019-02-22T06:41:26.928Z,100697.14
2019-02-22T06:43:56.403Z,100697.49
2019-02-22T06:46:28.475Z,100688.11
2019-02-22T06:48:58.223Z,100706.15
2019-02-22T06:51:30.677Z,100703.39
2019-02-22T06:54:00.276Z,100710.41
2019-02-22T06:56:30.141Z,100711.88
2019-02-22T06:59:00.265Z,100720.84
2019-02-22T07:01:29.507Z,100720.63
2019-02-22T07:04:03.536Z,100712.52
2019-02-22T07:06:33.108Z,100713.26
2019-02-22T07:09:05.199Z,100717.63
2019-02-22T07:11:53.582Z,100724.11
2019-02-22T07:14:23.955Z,100733.09
2019-02-22T07:16:54.802Z,100732.37
2019-02-22T07:19:24.119Z,100733.09
2019-02-22T07:21:54.002Z,100744.64
2019-02-22T07:24:24.059Z,100740.80
2019-02-22T07:26:53.877Z,100740.80
2019-02-22T07:29:26.513Z,100740.80
2019-02-22T07:32:05.449Z,100750.91
2019-02-22T07:34:27.864Z,100751.25
2019-02-22T07:36:57.126Z,100759.02
2019-02-22T07:39:28.089Z,100762.63
2019-02-22T07:41:57.864Z,100757.31
2019-02-22T07:44:29.563Z,100762.43
2019-02-22T07:46:58.998Z,100754.84
2019-02-22T07:49:29.577Z,100769.05
2019-02-22T07:51:58.770Z,100780.42
2019-02-22T07:54:40.613Z,100771.11
2019-02-22T07:57:10.399Z,100773.38
2019-02-22T07:59:41.556Z,100783.90
2019-02-22T08:02:12.417Z,100779.32
2019-02-22T08:04:42.032Z,100794.13
2019-02-22T08:07:11.298Z,100785.28
2019-02-22T08:09:40.987Z,100793.66
2019-02-22T08:12:10.257Z,100798.95
2019-02-22T08:14:39.685Z,100805.56
2019-02-22T08:17:09.081Z,100814.45
2019-02-22T08:19:38.276Z,100809.02
2019-02-22T08:22:07.463Z,100803.98
2019-02-22T08:24:36.753Z,100803.27
2019-02-22T08:27:06.234Z,100812.87
2019-02-22T08:29:38.428Z,100806.95
2019-02-22T08:32:07.790Z,100804.11
2019-02-22T08:34:37.021Z,100799.36
2019-02-22T08:37:07.000Z,100806.84
2019-02-22T08:39:36.779Z,100804.55
2019-02-22T08:42:06.320Z,100806.20
2019-02-22T08:44:37.528Z,100798.41
2019-02-22T08:47:07.287Z,100814.30
2019-02-22T08:49:36.476Z,100813.58
2019-02-22T08:52:06.134Z,100821.13
2019-02-22T08:54:46.308Z,100827.62
2019-02-22T08:57:06.830Z,100830.56
2019-02-22T08:59:36.038Z,100830.45
2019-02-22T09:02:05.197Z,100841.58
2019-02-22T09:04:34.387Z,100839.25
2019-02-22T09:07:03.592Z,100836.40
2019-02-22T09:09:32.746Z,100847.37
2019-02-22T09:12:03.353Z,100849.17
2019-02-22T09:14:33.838Z,100857.44
2019-02-22T09:17:06.013Z,100862.86
2019-02-22T09:19:35.351Z,100860.61
2019-02-22T09:22:04.528Z,100855.79
2019-02-22T09:24:33.504Z,100865.48
2019-02-22T09:27:02.963Z,100855.02
2019-02-22T09:29:32.532Z,100857.20
2019-02-22T09:32:01.773Z,100858.70
2019-02-22T09:34:31.282Z,100864.08
2019-02-22T09:37:00.500Z,100863.07
2019-02-22T09:39:30.232Z,100855.53
2019-02-22T09:41:59.740Z,100859.97
2019-02-22T09:44:29.308Z,100868.45
2019-02-22T09:46:58.542Z,100866.50
2019-02-22T09:49:27.969Z,100858.70
2019-02-22T09:51:57.285Z,100861.66
2019-02-22T09:54:26.469Z,100864.53
2019-02-22T09:56:56.228Z,100875.64
2019-02-22T09:59:32.666Z,100868.67
2019-02-22T10:02:06.494Z,100871.84
2019-02-22T10:04:35.728Z,100871.19
2019-02-22T10:07:04.960Z,100874.50
2019-02-22T10:09:34.667Z,100876.29
2019-02-22T10:12:04.176Z,100884.13
2019-02-22T10:14:33.681Z,100882.16
2019-02-22T10:17:03.435Z,100880.83
2019-02-22T10:19:32.702Z,100881.77
2019-02-22T10:22:07.032Z,100881.11
2019-02-22T10:24:36.303Z,100891.95
2019-02-22T10:27:07.541Z,100897.48
2019-02-22T10:29:37.121Z,100899.27
2019-02-22T10:32:07.007Z,100901.91
2019-02-22T10:34:41.018Z,100912.06
2019-02-22T10:37:10.277Z,100920.27
2019-02-22T10:39:39.477Z,100920.06
2019-02-22T10:42:08.957Z,100920.27
2019-02-22T10:44:38.176Z,100922.52
2019-02-22T10:47:07.351Z,100915.56
2019-02-22T10:49:36.541Z,100916.67
2019-02-22T10:52:06.180Z,100917.95
2019-02-22T10:54:35.381Z,100922.84
2019-02-22T10:57:05.417Z,100912.77
2019-02-22T10:59:34.623Z,100921.83
2019-02-22T11:02:03.892Z,100918.53
2019-02-22T11:04:33.074Z,100925.00
2019-02-22T11:07:02.263Z,100915.37
2019-02-22T11:09:31.466Z,100916.11
2019-02-22T11:12:01.754Z,100919.09
2019-02-22T11:14:31.162Z,100926.44
2019-02-22T11:17:02.248Z,100921.17
2019-02-22T11:19:31.762Z,100918.48
2019-02-22T11:22:00.942Z,100917.16
2019-02-22T11:24:30.160Z,100927.36
2019-02-22T11:27:09.386Z,100925.96
2019-02-22T11:29:38.688Z,100928.55
2019-02-22T11:32:08.293Z,100937.27
2019-02-22T11:34:37.816Z,100935.53
2019-02-22T11:37:07.077Z,100937.79
2019-02-22T11:39:37.154Z,100931.91
2019-02-22T11:42:06.729Z,100938.03
2019-02-22T11:44:40.211Z,100940.83
2019-02-22T11:47:06.819Z,100944.48
2019-02-22T11:49:36.630Z,100948.13
2019-02-22T11:52:06.458Z,100947.48
2019-02-22T11:54:35.611Z,100950.13
2019-02-22T11:57:05.009Z,100954.91
2019-02-22T11:59:34.190Z,100956.37
2019-02-22T12:02:03.413Z,100959.63
2019-02-22T12:04:34.319Z,100962.61
2019-02-22T12:07:03.918Z,100965.45
2019-02-22T12:09:33.092Z,100968.51
2019-02-22T12:12:02.604Z,100972.48
2019-02-22T12:14:31.827Z,100969.77
2019-02-22T12:17:02.196Z,100973.66
2019-02-22T12:19:31.727Z,100977.92
2019-02-22T12:22:00.942Z,100970.76
2019-02-22T12:24:32.709Z,100967.59
2019-02-22T12:27:09.723Z,100971.08
2019-02-22T12:29:38.995Z,100970.44
2019-02-22T12:32:09.747Z,100982.67
2019-02-22T12:34:38.958Z,100988.19
2019-02-22T12:37:08.408Z,100982.67
2019-02-22T12:39:37.664Z,100988.60
2019-02-22T12:42:07.173Z,100987.19
2019-02-22T12:44:36.611Z,100995.48
2019-02-22T12:47:06.784Z,100994.22
2019-02-22T12:49:36.946Z,100994.71
2019-02-22T12:52:06.192Z,101001.31
2019-02-22T12:54:35.626Z,101004.52
2019-02-22T12:57:04.884Z,101007.82
2019-02-22T12:59:34.633Z,101009.27
2019-02-22T13:02:03.910Z,101014.51
2019-02-22T13:04:33.436Z,101018.02
2019-02-22T13:07:03.224Z,101022.78
2019-02-22T13:09:36.400Z,101023.56
2019-02-22T13:12:13.651Z,101033.44
2019-02-22T13:14:36.259Z,101029.32
2019-02-22T13:17:07.440Z,101034.67
2019-02-22T13:19:39.405Z,101031.02
2019-02-22T13:22:11.034Z,101033.73
2019-02-22T13:24:41.890Z,101029.38
2019-02-22T13:27:21.292Z,101034.22
2019-02-22T13:29:53.156Z,101031.80
2019-02-22T13:32:27.932Z,101032.14
2019-02-22T13:35:00.262Z,101037.03
2019-02-22T13:37:34.265Z,101043.45
2019-02-22T13:40:04.159Z,101042.31
2019-02-22T13:42:35.665Z,101047.33
2019-02-22T13:45:05.187Z,101044.92
2019-02-22T13:47:36.859Z,101046.70
2019-02-22T13:50:10.139Z,101053.43
2019-02-22T13:53:02.402Z,101048.08
2019-02-22T13:55:47.628Z,101052.92
2019-02-22T13:58:17.066Z,101058.42
2019-02-22T14:00:47.077Z,101057.56
2019-02-22T14:03:17.700Z,101057.19
2019-02-22T14:05:47.092Z,101060.37
2019-02-22T14:08:18.577Z,101059.02
2019-02-22T14:10:48.055Z,101064.13
2019-02-22T14:13:17.891Z,101062.85
2019-02-22T14:15:47.859Z,101066.42
2019-02-22T14:18:17.563Z,101069.78
2019-02-22T14:20:47.538Z,101068.53
2019-02-22T14:23:17.052Z,101061.14
2019-02-22T14:25:46.274Z,101069.59
2019-02-22T14:28:16.670Z,101067.30
2019-02-22T14:30:48.451Z,101073.41
2019-02-22T14:33:23.995Z,101076.84
2019-02-22T14:35:54.367Z,101078.52
2019-02-22T14:38:23.607Z,101080.84
2019-02-22T14:40:53.182Z,101081.08
2019-02-22T14:43:23.464Z,101083.67
2019-02-22T14:45:53.282Z,101078.98
2019-02-22T14:48:23.611Z,101083.73
2019-02-22T14:50:53.083Z,101079.86
2019-02-22T14:53:24.494Z,101084.22
2019-02-22T14:55:53.880Z,101081.30
2019-02-22T14:58:24.577Z,101082.59
2019-02-22T15:00:53.785Z,101081.11
2019-02-22T15:03:29.136Z,101080.03
2019-02-22T15:05:59.396Z,101082.23
2019-02-22T15:08:29.307Z,101077.23
2019-02-22T15:10:59.268Z,101081.09
2019-02-22T15:13:28.447Z,101081.11
2019-02-22T15:16:32.236Z,101081.34
2019-02-22T15:19:01.757Z,101083.53
2019-02-22T15:21:31.226Z,101082.47
2019-02-22T15:24:01.901Z,101079.98
2019-02-22T15:26:31.861Z,101083.98
2019-02-22T15:29:04.421Z,101081.56
2019-02-22T15:31:36.401Z,101084.56
2019-02-22T15:34:07.807Z,101082.84
2019-02-22T15:36:39.049Z,101081.70
2019-02-22T15:39:09.792Z,101082.00
2019-02-22T15:41:39.323Z,101075.92
2019-02-22T15:44:09.946Z,101074.75
2019-02-22T15:46:41.331Z,101070.92
2019-02-22T15:49:11.769Z,101074.41
2019-02-22T15:51:44.831Z,101074.20
2019-02-22T15:54:14.363Z,101082.23
2019-02-22T15:56:48.748Z,101078.34
2019-02-22T15:59:20.933Z,101081.97
2019-02-22T16:01:55.808Z,101075.43
2019-02-22T16:04:41.319Z,101082.95
2019-02-22T16:07:11.431Z,101081.30
2019-02-22T16:09:41.040Z,101084.59
2019-02-22T16:12:12.435Z,101090.02
2019-02-22T16:14:42.465Z,101087.63
2019-02-22T16:17:12.030Z,101094.05
2019-02-22T16:19:42.674Z,101093.86
2019-02-22T16:22:16.741Z,101091.27
2019-02-22T16:24:47.147Z,101088.35
2019-02-22T16:27:18.069Z,101087.48
2019-02-22T16:29:47.505Z,101081.30
2019-02-22T16:32:16.690Z,101075.70
2019-02-22T16:34:47.123Z,101082.22
2019-02-22T16:37:16.333Z,101078.70
2019-02-22T16:39:46.653Z,101078.63
2019-02-22T16:42:21.217Z,101087.98
2019-02-22T16:44:50.617Z,101083.92
2019-02-22T16:47:19.784Z,101087.81
2019-02-22T16:49:49.338Z,101096.60
2019-02-22T16:52:21.591Z,101097.84
2019-02-22T16:54:52.710Z,101100.54
2019-02-22T16:57:23.211Z,101092.35
2019-02-22T16:59:53.420Z,101091.13
2019-02-22T17:02:22.934Z,101093.75
2019-02-22T17:04:52.773Z,101095.83
2019-02-22T17:07:22.218Z,101094.67
2019-02-22T17:09:52.889Z,101096.34
2019-02-22T17:12:22.367Z,101099.27
2019-02-22T17:14:54.571Z,101092.58
2019-02-22T17:17:24.069Z,101083.48
2019-02-22T17:19:54.100Z,101094.34
2019-02-22T17:22:23.267Z,101094.54
2019-02-22T17:24:52.484Z,101093.33
2019-02-22T17:27:21.943Z,101098.11
2019-02-22T17:29:51.926Z,101098.06
2019-02-22T17:32:21.178Z,101103.66
2019-02-22T17:34:50.387Z,101106.97
2019-02-22T17:37:21.053Z,101107.87
2019-02-22T17:39:50.242Z,101105.19
2019-02-22T17:42:19.418Z,101104.98
2019-02-22T17:44:48.653Z,101111.09
2019-02-22T17:47:17.813Z,101117.25
2019-02-22T17:49:47.016Z,101119.19
2019-02-22T17:52:16.221Z,101122.18
2019-02-22T17:54:45.717Z,101121.47
2019-02-22T17:57:15.536Z,101122.63
2019-02-22T17:59:46.746Z,101133.48
2019-02-22T18:02:17.206Z,101132.62
2019-02-22T18:04:48.460Z,101135.41
2019-02-22T18:07:17.899Z,101141.92
2019-02-22T18:09:48.914Z,101138.55
2019-02-22T18:12:18.411Z,101142.77
2019-02-22T18:14:55.517Z,101143.22
2019-02-22T18:17:24.724Z,101149.43
2019-02-22T18:19:55.663Z,101146.88
2019-02-22T18:22:26.206Z,101150.89
2019-02-22T18:24:57.570Z,101153.34
2019-02-22T18:27:27.048Z,101157.15
2019-02-22T18:29:56.664Z,101156.22
2019-02-22T18:32:26.217Z,101155.51
2019-02-22T18:34:55.726Z,101156.88
2019-02-22T18:37:24.940Z,101157.75
2019-02-22T18:39:56.414Z,101164.67
2019-02-22T18:42:25.620Z,101162.81
2019-02-22T18:44:57.251Z,101164.67
2019-02-22T18:47:30.483Z,101162.38
2019-02-22T18:49:59.912Z,101168.16
2019-02-22T18:52:32.308Z,101168.95
2019-02-22T18:55:02.116Z,101164.30
2019-02-22T18:57:44.757Z,101170.20
2019-02-22T19:00:21.658Z,101163.13
2019-02-22T19:02:54.267Z,101165.59
2019-02-22T19:05:23.746Z,101180.11
2019-02-22T19:07:56.509Z,101178.67
2019-02-22T19:10:25.689Z,101181.64
2019-02-22T19:12:56.254Z,101187.58
2019-02-22T19:15:26.287Z,101188.41
2019-02-22T19:17:55.876Z,101194.41
2019-02-22T19:20:25.585Z,101195.10
2019-02-22T19:22:56.444Z,101191.07
2019-02-22T19:25:25.756Z,101191.61
2019-02-22T19:27:55.064Z,101194.32
2019-02-22T19:30:25.690Z,101199.59
2019-02-22T19:32:55.880Z,101199.14
2019-02-22T19:35:25.718Z,101204.02
2019-02-22T19:37:57.483Z,101204.27
2019-02-22T19:40:27.026Z,101202.63
2019-02-22T19:42:56.283Z,101204.64
2019-02-22T19:45:26.764Z,101206.37
2019-02-22T19:47:56.984Z,101204.61
2019-02-22T19:50:27.330Z,101213.36
2019-02-22T19:52:58.553Z,101211.95
2019-02-22T19:55:28.536Z,101210.22
2019-02-22T19:57:59.071Z,101219.66
2019-02-22T20:00:28.286Z,101221.17
2019-02-22T20:02:57.435Z,101227.92
2019-02-22T20:05:26.973Z,101231.23
2019-02-22T20:07:57.543Z,101231.80
2019-02-22T20:10:30.406Z,101231.34
2019-02-22T20:13:00.148Z,101232.78
2019-02-22T20:15:30.940Z,101250.69
2019-02-22T20:18:01.420Z,101255.67
2019-02-22T20:20:31.657Z,101254.84
2019-02-22T20:23:02.244Z,101243.12
2019-02-22T20:25:31.627Z,101254.13
2019-02-22T20:28:01.419Z,101258.80
2019-02-22T20:30:30.937Z,101257.78
2019-02-22T20:33:00.866Z,101263.63
2019-02-22T20:35:30.329Z,101276.67
2019-02-22T20:38:05.687Z,101273.83
2019-02-22T20:40:38.561Z,101281.27
2019-02-22T20:43:12.417Z,101272.75
2019-02-22T20:45:45.135Z,101271.68
2019-02-22T20:48:14.848Z,101273.23
2019-02-22T20:50:44.303Z,101274.25
2019-02-22T20:53:13.484Z,101285.81
2019-02-22T20:55:43.977Z,101292.06
2019-02-22T20:58:14.875Z,101288.86
2019-02-22T21:00:45.192Z,101292.89
2019-02-22T21:03:19.745Z,101292.44
2019-02-22T21:05:53.353Z,101291.48
2019-02-22T21:08:34.129Z,101278.91
2019-02-22T21:11:07.734Z,101284.80
2019-02-22T21:13:37.480Z,101286.05
2019-02-22T21:16:08.292Z,101280.68
2019-02-22T21:18:37.741Z,101282.52
2019-02-22T21:21:06.948Z,101274.54
2019-02-22T21:23:36.126Z,101267.37
2019-02-22T21:26:06.658Z,101269.91
2019-02-22T21:28:35.951Z,101276.95
2019-02-22T21:31:08.776Z,101281.60
2019-02-22T21:33:37.956Z,101278.66
2019-02-22T21:36:07.686Z,101266.27
2019-02-22T21:38:38.039Z,101268.44
2019-02-22T21:41:07.220Z,101268.02
2019-02-22T21:43:37.559Z,101270.73
2019-02-22T21:46:07.017Z,101256.05
2019-02-22T21:48:41.409Z,101247.23
2019-02-22T21:51:10.591Z,101256.98
2019-02-22T21:53:40.016Z,101260.86
2019-02-22T21:56:09.179Z,101258.62
2019-02-22T21:58:38.653Z,101260.16
2019-02-22T22:01:08.093Z,101264.91
2019-02-22T22:03:37.532Z,101264.48
2019-02-22T22:06:07.181Z,101270.69
2019-02-22T22:08:55.564Z,101261.81
2019-02-22T22:11:25.800Z,101255.41
2019-02-22T22:13:55.297Z,101265.87
2019-02-22T22:16:29.294Z,101278.31
2019-02-22T22:19:02.319Z,101288.03
2019-02-22T22:21:32.963Z,101294.09
2019-02-22T22:24:48.957Z,101297.30
2019-02-22T22:27:37.543Z,101296.77
2019-02-22T22:30:09.759Z,101309.66
2019-02-22T22:32:39.468Z,101310.98
2019-02-22T22:35:13.575Z,101313.62
2019-02-22T22:37:43.106Z,101316.29
2019-02-22T22:40:12.302Z,101317.16
2019-02-22T22:42:41.476Z,101315.44
2019-02-22T22:45:11.367Z,101322.05
2019-02-22T22:47:40.722Z,101325.25
2019-02-22T22:50:11.401Z,101319.55
2019-02-22T22:52:40.844Z,101322.19
2019-02-22T22:55:10.533Z,101325.66
2019-02-22T22:57:40.089Z,101326.25
2019-02-22T23:00:21.115Z,101329.30
2019-02-22T23:02:51.131Z,101332.02
2019-02-22T23:05:20.899Z,101332.80
2019-02-22T23:07:50.905Z,101337.72
2019-02-22T23:10:20.921Z,101346.03
2019-02-22T23:12:54.797Z,101337.71
2019-02-22T23:15:24.261Z,101332.88
2019-02-22T23:17:56.660Z,101335.98
2019-02-22T23:20:26.119Z,101340.31
2019-02-22T23:22:56.436Z,101331.64
2019-02-22T23:25:26.459Z,101334.69
2019-02-22T23:28:01.075Z,101344.80
2019-02-22T23:30:32.314Z,101353.52
2019-02-22T23:33:02.630Z,101352.75
2019-02-22T23:35:32.982Z,101353.61
2019-02-22T23:38:02.687Z,101349.68
2019-02-22T23:40:33.879Z,101349.28
2019-02-22T23:43:03.428Z,101353.62
2019-02-22T23:45:32.901Z,101358.41
2019-02-22T23:48:02.295Z,101365.41
2019-02-22T23:50:32.850Z,101360.67
2019-02-22T23:53:02.016Z,101364.14
2019-02-22T23:55:45.003Z,101361.97
2019-02-22T23:58:20.992Z,101376.00
